sensor_id;sensor_type;location;lat;lon;timestamp;pressure;altitude;pressure_sealevel;temperature
19666;BMP180;9980;51.020;7.772;2023-06-10T00:00:44;97476.00;;;20.30
19666;BMP180;9980;51.020;7.772;2023-06-10T00:03:11;97477.00;;;20.30
19666;BMP180;9980;51.020;7.772;2023-06-10T00:05:39;97484.00;;;20.20
19666;BMP180;9980;51.020;7.772;2023-06-10T00:08:06;97473.00;;;20.20
19666;BMP180;9980;51.020;7.772;2023-06-10T00:10:36;97471.00;;;20.10
19666;BMP180;9980;51.020;7.772;2023-06-10T00:13:05;97473.00;;;20.10
19666;BMP180;9980;51.020;7.772;2023-06-10T00:15:34;97473.00;;;20.10
19666;BMP180;9980;51.020;7.772;2023-06-10T00:18:03;97485.00;;;20.00
19666;BMP180;9980;51.020;7.772;2023-06-10T00:20:31;97474.00;;;20.00
19666;BMP180;9980;51.020;7.772;2023-06-10T00:22:58;97463.00;;;19.90
19666;BMP180;9980;51.020;7.772;2023-06-10T00:25:28;97477.00;;;19.90
19666;BMP180;9980;51.020;7.772;2023-06-10T00:27:55;97472.00;;;19.90
19666;BMP180;9980;51.020;7.772;2023-06-10T00:30:22;97472.00;;;19.80
19666;BMP180;9980;51.020;7.772;2023-06-10T00:32:49;97473.00;;;19.80
19666;BMP180;9980;51.020;7.772;2023-06-10T00:35:16;97474.00;;;19.80
19666;BMP180;9980;51.020;7.772;2023-06-10T00:37:43;97467.00;;;19.70
19666;BMP180;9980;51.020;7.772;2023-06-10T00:40:11;97470.00;;;19.70
19666;BMP180;9980;51.020;7.772;2023-06-10T00:42:38;97475.00;;;19.60
19666;BMP180;9980;51.020;7.772;2023-06-10T00:45:05;97480.00;;;19.60
19666;BMP180;9980;51.020;7.772;2023-06-10T00:47:36;97482.00;;;19.50
19666;BMP180;9980;51.020;7.772;2023-06-10T00:50:04;97481.00;;;19.50
19666;BMP180;9980;51.020;7.772;2023-06-10T00:52:33;97474.00;;;19.50
19666;BMP180;9980;51.020;7.772;2023-06-10T00:55:01;97477.00;;;19.40
19666;BMP180;9980;51.020;7.772;2023-06-10T00:57:28;97475.00;;;19.40
19666;BMP180;9980;51.020;7.772;2023-06-10T00:59:57;97478.00;;;19.40
19666;BMP180;9980;51.020;7.772;2023-06-10T01:02:24;97481.00;;;19.30
19666;BMP180;9980;51.020;7.772;2023-06-10T01:04:51;97480.00;;;19.30
19666;BMP180;9980;51.020;7.772;2023-06-10T01:10:24;97484.00;;;19.20
19666;BMP180;9980;51.020;7.772;2023-06-10T01:13:01;97485.00;;;19.10
19666;BMP180;9980;51.020;7.772;2023-06-10T01:15:35;97481.00;;;19.10
19666;BMP180;9980;51.020;7.772;2023-06-10T01:18:05;97476.00;;;19.10
19666;BMP180;9980;51.020;7.772;2023-06-10T01:20:37;97478.00;;;19.00
19666;BMP180;9980;51.020;7.772;2023-06-10T01:23:09;97495.00;;;19.00
19666;BMP180;9980;51.020;7.772;2023-06-10T01:25:45;97479.00;;;18.90
19666;BMP180;9980;51.020;7.772;2023-06-10T01:28:35;97485.00;;;18.90
19666;BMP180;9980;51.020;7.772;2023-06-10T01:31:27;97478.00;;;18.80
19666;BMP180;9980;51.020;7.772;2023-06-10T01:34:01;97486.00;;;18.80
19666;BMP180;9980;51.020;7.772;2023-06-10T01:36:31;97478.00;;;18.80
19666;BMP180;9980;51.020;7.772;2023-06-10T01:39:00;97483.00;;;18.80
19666;BMP180;9980;51.020;7.772;2023-06-10T01:41:29;97493.00;;;18.70
19666;BMP180;9980;51.020;7.772;2023-06-10T01:43:57;97483.00;;;18.70
19666;BMP180;9980;51.020;7.772;2023-06-10T01:46:24;97483.00;;;18.70
19666;BMP180;9980;51.020;7.772;2023-06-10T01:48:51;97482.00;;;18.60
19666;BMP180;9980;51.020;7.772;2023-06-10T01:51:18;97478.00;;;18.60
19666;BMP180;9980;51.020;7.772;2023-06-10T01:53:45;97495.00;;;18.60
19666;BMP180;9980;51.020;7.772;2023-06-10T01:56:13;97483.00;;;18.50
19666;BMP180;9980;51.020;7.772;2023-06-10T01:58:47;97480.00;;;18.50
19666;BMP180;9980;51.020;7.772;2023-06-10T02:01:14;97483.00;;;18.50
19666;BMP180;9980;51.020;7.772;2023-06-10T02:03:41;97483.00;;;18.40
19666;BMP180;9980;51.020;7.772;2023-06-10T02:06:08;97489.00;;;18.40
19666;BMP180;9980;51.020;7.772;2023-06-10T02:08:35;97482.00;;;18.40
19666;BMP180;9980;51.020;7.772;2023-06-10T02:11:02;97477.00;;;18.30
19666;BMP180;9980;51.020;7.772;2023-06-10T02:13:29;97488.00;;;18.30
19666;BMP180;9980;51.020;7.772;2023-06-10T02:15:56;97479.00;;;18.30
19666;BMP180;9980;51.020;7.772;2023-06-10T02:18:28;97490.00;;;18.20
19666;BMP180;9980;51.020;7.772;2023-06-10T02:20:54;97471.00;;;18.20
19666;BMP180;9980;51.020;7.772;2023-06-10T02:23:22;97481.00;;;18.20
19666;BMP180;9980;51.020;7.772;2023-06-10T02:25:49;97490.00;;;18.10
19666;BMP180;9980;51.020;7.772;2023-06-10T02:28:16;97498.00;;;18.10
19666;BMP180;9980;51.020;7.772;2023-06-10T02:30:43;97491.00;;;18.10
19666;BMP180;9980;51.020;7.772;2023-06-10T02:33:10;97486.00;;;18.00
19666;BMP180;9980;51.020;7.772;2023-06-10T02:35:39;97499.00;;;18.00
19666;BMP180;9980;51.020;7.772;2023-06-10T02:38:06;97487.00;;;18.00
19666;BMP180;9980;51.020;7.772;2023-06-10T02:40:34;97488.00;;;18.00
19666;BMP180;9980;51.020;7.772;2023-06-10T02:43:01;97485.00;;;17.90
19666;BMP180;9980;51.020;7.772;2023-06-10T02:45:28;97492.00;;;17.90
19666;BMP180;9980;51.020;7.772;2023-06-10T02:47:57;97486.00;;;17.90
19666;BMP180;9980;51.020;7.772;2023-06-10T02:50:24;97493.00;;;17.80
19666;BMP180;9980;51.020;7.772;2023-06-10T02:53:12;97491.00;;;17.80
19666;BMP180;9980;51.020;7.772;2023-06-10T02:55:43;97484.00;;;17.80
19666;BMP180;9980;51.020;7.772;2023-06-10T02:58:13;97483.00;;;17.70
19666;BMP180;9980;51.020;7.772;2023-06-10T03:00:41;97490.00;;;17.70
19666;BMP180;9980;51.020;7.772;2023-06-10T03:03:10;97485.00;;;17.70
19666;BMP180;9980;51.020;7.772;2023-06-10T03:05:48;97488.00;;;17.70
19666;BMP180;9980;51.020;7.772;2023-06-10T03:08:17;97488.00;;;17.60
19666;BMP180;9980;51.020;7.772;2023-06-10T03:10:44;97482.00;;;17.60
19666;BMP180;9980;51.020;7.772;2023-06-10T03:13:15;97473.00;;;17.60
19666;BMP180;9980;51.020;7.772;2023-06-10T03:15:42;97482.00;;;17.50
19666;BMP180;9980;51.020;7.772;2023-06-10T03:18:13;97495.00;;;17.50
19666;BMP180;9980;51.020;7.772;2023-06-10T03:20:41;97483.00;;;17.50
19666;BMP180;9980;51.020;7.772;2023-06-10T03:23:09;97487.00;;;17.40
19666;BMP180;9980;51.020;7.772;2023-06-10T03:25:37;97490.00;;;17.40
19666;BMP180;9980;51.020;7.772;2023-06-10T03:28:04;97495.00;;;17.40
19666;BMP180;9980;51.020;7.772;2023-06-10T03:30:32;97494.00;;;17.40
19666;BMP180;9980;51.020;7.772;2023-06-10T03:33:00;97512.00;;;17.40
19666;BMP180;9980;51.020;7.772;2023-06-10T03:35:29;97491.00;;;17.30
19666;BMP180;9980;51.020;7.772;2023-06-10T03:37:57;97485.00;;;17.30
19666;BMP180;9980;51.020;7.772;2023-06-10T03:40:24;97498.00;;;17.30
19666;BMP180;9980;51.020;7.772;2023-06-10T03:42:51;97491.00;;;17.30
19666;BMP180;9980;51.020;7.772;2023-06-10T03:45:18;97490.00;;;17.30
19666;BMP180;9980;51.020;7.772;2023-06-10T03:47:46;97494.00;;;17.30
19666;BMP180;9980;51.020;7.772;2023-06-10T03:50:17;97485.00;;;17.20
19666;BMP180;9980;51.020;7.772;2023-06-10T03:52:45;97501.00;;;17.20
19666;BMP180;9980;51.020;7.772;2023-06-10T03:55:14;97505.00;;;17.20
19666;BMP180;9980;51.020;7.772;2023-06-10T03:57:44;97497.00;;;17.20
19666;BMP180;9980;51.020;7.772;2023-06-10T04:00:12;97492.00;;;17.20
19666;BMP180;9980;51.020;7.772;2023-06-10T04:02:43;97496.00;;;17.20
19666;BMP180;9980;51.020;7.772;2023-06-10T04:05:36;97498.00;;;17.20
19666;BMP180;9980;51.020;7.772;2023-06-10T04:08:04;97495.00;;;17.20
19666;BMP180;9980;51.020;7.772;2023-06-10T04:10:32;97504.00;;;17.20
19666;BMP180;9980;51.020;7.772;2023-06-10T04:13:00;97493.00;;;17.20
19666;BMP180;9980;51.020;7.772;2023-06-10T04:15:31;97498.00;;;17.20
19666;BMP180;9980;51.020;7.772;2023-06-10T04:18:06;97500.00;;;17.20
19666;BMP180;9980;51.020;7.772;2023-06-10T04:20:33;97518.00;;;17.20
19666;BMP180;9980;51.020;7.772;2023-06-10T04:23:01;97510.00;;;17.20
19666;BMP180;9980;51.020;7.772;2023-06-10T04:25:29;97510.00;;;17.20
19666;BMP180;9980;51.020;7.772;2023-06-10T04:27:56;97505.00;;;17.20
19666;BMP180;9980;51.020;7.772;2023-06-10T04:30:23;97504.00;;;17.20
19666;BMP180;9980;51.020;7.772;2023-06-10T04:32:51;97523.00;;;17.30
19666;BMP180;9980;51.020;7.772;2023-06-10T04:35:19;97521.00;;;17.30
19666;BMP180;9980;51.020;7.772;2023-06-10T04:37:47;97503.00;;;17.40
19666;BMP180;9980;51.020;7.772;2023-06-10T04:40:15;97516.00;;;17.50
19666;BMP180;9980;51.020;7.772;2023-06-10T04:42:44;97523.00;;;17.70
19666;BMP180;9980;51.020;7.772;2023-06-10T04:45:12;97521.00;;;17.80
19666;BMP180;9980;51.020;7.772;2023-06-10T04:47:40;97514.00;;;18.00
19666;BMP180;9980;51.020;7.772;2023-06-10T04:50:07;97510.00;;;18.10
19666;BMP180;9980;51.020;7.772;2023-06-10T04:52:34;97517.00;;;18.30
19666;BMP180;9980;51.020;7.772;2023-06-10T04:55:01;97512.00;;;18.40
19666;BMP180;9980;51.020;7.772;2023-06-10T04:57:29;97521.00;;;18.60
19666;BMP180;9980;51.020;7.772;2023-06-10T04:59:56;97515.00;;;18.70
19666;BMP180;9980;51.020;7.772;2023-06-10T05:02:23;97515.00;;;18.80
19666;BMP180;9980;51.020;7.772;2023-06-10T05:04:50;97524.00;;;18.90
19666;BMP180;9980;51.020;7.772;2023-06-10T05:07:17;97511.00;;;19.00
19666;BMP180;9980;51.020;7.772;2023-06-10T05:09:44;97519.00;;;19.10
19666;BMP180;9980;51.020;7.772;2023-06-10T05:12:12;97504.00;;;19.20
19666;BMP180;9980;51.020;7.772;2023-06-10T05:14:39;97501.00;;;19.40
19666;BMP180;9980;51.020;7.772;2023-06-10T05:17:06;97513.00;;;19.50
19666;BMP180;9980;51.020;7.772;2023-06-10T05:19:33;97510.00;;;19.60
19666;BMP180;9980;51.020;7.772;2023-06-10T05:22:02;97517.00;;;19.70
19666;BMP180;9980;51.020;7.772;2023-06-10T05:24:29;97523.00;;;19.80
19666;BMP180;9980;51.020;7.772;2023-06-10T05:26:56;97516.00;;;19.90
19666;BMP180;9980;51.020;7.772;2023-06-10T05:29:23;97518.00;;;20.00
19666;BMP180;9980;51.020;7.772;2023-06-10T05:31:50;97520.00;;;20.10
19666;BMP180;9980;51.020;7.772;2023-06-10T05:34:17;97512.00;;;20.20
19666;BMP180;9980;51.020;7.772;2023-06-10T05:36:44;97516.00;;;20.20
19666;BMP180;9980;51.020;7.772;2023-06-10T05:39:12;97502.00;;;20.30
19666;BMP180;9980;51.020;7.772;2023-06-10T05:41:39;97522.00;;;20.40
19666;BMP180;9980;51.020;7.772;2023-06-10T05:44:08;97514.00;;;20.50
19666;BMP180;9980;51.020;7.772;2023-06-10T05:46:37;97518.00;;;20.60
19666;BMP180;9980;51.020;7.772;2023-06-10T05:49:04;97511.00;;;20.70
19666;BMP180;9980;51.020;7.772;2023-06-10T05:51:31;97516.00;;;20.80
19666;BMP180;9980;51.020;7.772;2023-06-10T05:53:57;97513.00;;;20.90
19666;BMP180;9980;51.020;7.772;2023-06-10T05:56:24;97502.00;;;21.00
19666;BMP180;9980;51.020;7.772;2023-06-10T05:58:52;97515.00;;;21.10
19666;BMP180;9980;51.020;7.772;2023-06-10T06:01:19;97509.00;;;21.20
19666;BMP180;9980;51.020;7.772;2023-06-10T06:03:46;97517.00;;;21.30
19666;BMP180;9980;51.020;7.772;2023-06-10T06:06:13;97519.00;;;21.40
19666;BMP180;9980;51.020;7.772;2023-06-10T06:08:40;97515.00;;;21.50
19666;BMP180;9980;51.020;7.772;2023-06-10T06:11:07;97520.00;;;21.60
19666;BMP180;9980;51.020;7.772;2023-06-10T06:13:34;97515.00;;;21.80
19666;BMP180;9980;51.020;7.772;2023-06-10T06:16:01;97513.00;;;21.90
19666;BMP180;9980;51.020;7.772;2023-06-10T06:18:28;97511.00;;;22.00
19666;BMP180;9980;51.020;7.772;2023-06-10T06:20:55;97518.00;;;22.10
19666;BMP180;9980;51.020;7.772;2023-06-10T06:23:22;97503.00;;;22.20
19666;BMP180;9980;51.020;7.772;2023-06-10T06:25:49;97509.00;;;22.30
19666;BMP180;9980;51.020;7.772;2023-06-10T06:28:16;97496.00;;;22.50
19666;BMP180;9980;51.020;7.772;2023-06-10T06:30:43;97505.00;;;22.60
19666;BMP180;9980;51.020;7.772;2023-06-10T06:33:10;97499.00;;;22.70
19666;BMP180;9980;51.020;7.772;2023-06-10T06:35:37;97512.00;;;22.90
19666;BMP180;9980;51.020;7.772;2023-06-10T06:38:05;97513.00;;;23.00
19666;BMP180;9980;51.020;7.772;2023-06-10T06:40:32;97504.00;;;23.10
19666;BMP180;9980;51.020;7.772;2023-06-10T06:42:59;97496.00;;;23.30
19666;BMP180;9980;51.020;7.772;2023-06-10T06:45:49;97498.00;;;23.40
19666;BMP180;9980;51.020;7.772;2023-06-10T06:48:16;97511.00;;;23.60
19666;BMP180;9980;51.020;7.772;2023-06-10T06:50:43;97504.00;;;23.70
19666;BMP180;9980;51.020;7.772;2023-06-10T06:53:10;97504.00;;;23.90
19666;BMP180;9980;51.020;7.772;2023-06-10T06:55:37;97501.00;;;24.00
19666;BMP180;9980;51.020;7.772;2023-06-10T06:58:06;97520.00;;;24.10
19666;BMP180;9980;51.020;7.772;2023-06-10T07:00:33;97519.00;;;24.30
19666;BMP180;9980;51.020;7.772;2023-06-10T07:02:59;97515.00;;;24.40
19666;BMP180;9980;51.020;7.772;2023-06-10T07:05:27;97527.00;;;24.50
19666;BMP180;9980;51.020;7.772;2023-06-10T07:07:54;97533.00;;;24.70
19666;BMP180;9980;51.020;7.772;2023-06-10T07:10:26;97521.00;;;24.80
19666;BMP180;9980;51.020;7.772;2023-06-10T07:12:55;97525.00;;;25.00
19666;BMP180;9980;51.020;7.772;2023-06-10T07:15:22;97534.00;;;25.10
19666;BMP180;9980;51.020;7.772;2023-06-10T07:17:54;97514.00;;;25.20
19666;BMP180;9980;51.020;7.772;2023-06-10T07:20:22;97518.00;;;25.30
19666;BMP180;9980;51.020;7.772;2023-06-10T07:22:49;97529.00;;;25.50
19666;BMP180;9980;51.020;7.772;2023-06-10T07:25:16;97522.00;;;25.60
19666;BMP180;9980;51.020;7.772;2023-06-10T07:27:43;97522.00;;;25.70
19666;BMP180;9980;51.020;7.772;2023-06-10T07:30:10;97522.00;;;25.90
19666;BMP180;9980;51.020;7.772;2023-06-10T07:32:38;97525.00;;;26.00
19666;BMP180;9980;51.020;7.772;2023-06-10T07:35:09;97517.00;;;26.10
19666;BMP180;9980;51.020;7.772;2023-06-10T07:37:37;97529.00;;;26.20
19666;BMP180;9980;51.020;7.772;2023-06-10T07:40:05;97528.00;;;26.30
19666;BMP180;9980;51.020;7.772;2023-06-10T07:42:35;97526.00;;;26.40
19666;BMP180;9980;51.020;7.772;2023-06-10T07:45:03;97520.00;;;26.50
19666;BMP180;9980;51.020;7.772;2023-06-10T07:47:33;97523.00;;;26.60
19666;BMP180;9980;51.020;7.772;2023-06-10T07:50:00;97528.00;;;26.70
19666;BMP180;9980;51.020;7.772;2023-06-10T07:52:27;97520.00;;;26.90
19666;BMP180;9980;51.020;7.772;2023-06-10T07:54:55;97516.00;;;27.00
19666;BMP180;9980;51.020;7.772;2023-06-10T07:57:22;97518.00;;;27.10
19666;BMP180;9980;51.020;7.772;2023-06-10T07:59:49;97536.00;;;27.20
19666;BMP180;9980;51.020;7.772;2023-06-10T08:02:16;97531.00;;;27.40
19666;BMP180;9980;51.020;7.772;2023-06-10T08:04:43;97511.00;;;27.50
19666;BMP180;9980;51.020;7.772;2023-06-10T08:07:10;97520.00;;;27.60
19666;BMP180;9980;51.020;7.772;2023-06-10T08:09:37;97527.00;;;27.70
19666;BMP180;9980;51.020;7.772;2023-06-10T08:12:05;97530.00;;;27.80
19666;BMP180;9980;51.020;7.772;2023-06-10T08:14:36;97517.00;;;27.90
19666;BMP180;9980;51.020;7.772;2023-06-10T08:17:04;97523.00;;;28.00
19666;BMP180;9980;51.020;7.772;2023-06-10T08:19:32;97522.00;;;28.10
19666;BMP180;9980;51.020;7.772;2023-06-10T08:21:59;97516.00;;;28.20
19666;BMP180;9980;51.020;7.772;2023-06-10T08:24:26;97530.00;;;28.30
19666;BMP180;9980;51.020;7.772;2023-06-10T08:26:53;97519.00;;;28.40
19666;BMP180;9980;51.020;7.772;2023-06-10T08:29:23;97522.00;;;28.50
19666;BMP180;9980;51.020;7.772;2023-06-10T08:31:50;97524.00;;;28.60
19666;BMP180;9980;51.020;7.772;2023-06-10T08:34:17;97513.00;;;28.70
19666;BMP180;9980;51.020;7.772;2023-06-10T08:36:44;97513.00;;;28.80
19666;BMP180;9980;51.020;7.772;2023-06-10T08:39:12;97525.00;;;28.90
19666;BMP180;9980;51.020;7.772;2023-06-10T08:41:43;97509.00;;;29.00
19666;BMP180;9980;51.020;7.772;2023-06-10T08:44:29;97519.00;;;29.10
19666;BMP180;9980;51.020;7.772;2023-06-10T08:47:00;97518.00;;;29.20
19666;BMP180;9980;51.020;7.772;2023-06-10T08:49:34;97515.00;;;29.30
19666;BMP180;9980;51.020;7.772;2023-06-10T08:52:07;97518.00;;;29.50
19666;BMP180;9980;51.020;7.772;2023-06-10T08:54:35;97520.00;;;29.60
19666;BMP180;9980;51.020;7.772;2023-06-10T08:57:05;97524.00;;;29.70
19666;BMP180;9980;51.020;7.772;2023-06-10T08:59:33;97519.00;;;29.80
19666;BMP180;9980;51.020;7.772;2023-06-10T09:02:02;97522.00;;;29.90
19666;BMP180;9980;51.020;7.772;2023-06-10T09:04:31;97504.00;;;30.00
19666;BMP180;9980;51.020;7.772;2023-06-10T09:06:59;97511.00;;;30.10
19666;BMP180;9980;51.020;7.772;2023-06-10T09:09:28;97500.00;;;30.20
19666;BMP180;9980;51.020;7.772;2023-06-10T09:11:58;97512.00;;;30.30
19666;BMP180;9980;51.020;7.772;2023-06-10T09:14:25;97511.00;;;30.40
19666;BMP180;9980;51.020;7.772;2023-06-10T09:16:52;97521.00;;;30.50
19666;BMP180;9980;51.020;7.772;2023-06-10T09:19:27;97525.00;;;30.60
19666;BMP180;9980;51.020;7.772;2023-06-10T09:21:55;97504.00;;;30.70
19666;BMP180;9980;51.020;7.772;2023-06-10T09:24:25;97504.00;;;30.80
19666;BMP180;9980;51.020;7.772;2023-06-10T09:27:07;97511.00;;;30.80
19666;BMP180;9980;51.020;7.772;2023-06-10T09:29:54;97500.00;;;30.90
19666;BMP180;9980;51.020;7.772;2023-06-10T09:32:22;97512.00;;;31.10
19666;BMP180;9980;51.020;7.772;2023-06-10T09:34:49;97510.00;;;31.20
19666;BMP180;9980;51.020;7.772;2023-06-10T09:37:23;97510.00;;;31.30
19666;BMP180;9980;51.020;7.772;2023-06-10T09:40:11;97502.00;;;31.40
19666;BMP180;9980;51.020;7.772;2023-06-10T09:42:39;97505.00;;;31.50
19666;BMP180;9980;51.020;7.772;2023-06-10T09:45:07;97516.00;;;31.60
19666;BMP180;9980;51.020;7.772;2023-06-10T09:47:34;97517.00;;;31.70
19666;BMP180;9980;51.020;7.772;2023-06-10T09:50:02;97491.00;;;31.80
19666;BMP180;9980;51.020;7.772;2023-06-10T09:52:30;97501.00;;;31.90
19666;BMP180;9980;51.020;7.772;2023-06-10T09:55:02;97501.00;;;32.00
19666;BMP180;9980;51.020;7.772;2023-06-10T09:57:33;97500.00;;;32.10
19666;BMP180;9980;51.020;7.772;2023-06-10T10:00:11;97496.00;;;32.20
19666;BMP180;9980;51.020;7.772;2023-06-10T10:02:49;97509.00;;;32.30
19666;BMP180;9980;51.020;7.772;2023-06-10T10:05:21;97499.00;;;32.40
19666;BMP180;9980;51.020;7.772;2023-06-10T10:07:49;97509.00;;;32.50
19666;BMP180;9980;51.020;7.772;2023-06-10T10:10:21;97500.00;;;32.50
19666;BMP180;9980;51.020;7.772;2023-06-10T10:12:54;97505.00;;;32.60
19666;BMP180;9980;51.020;7.772;2023-06-10T10:15:26;97510.00;;;32.70
19666;BMP180;9980;51.020;7.772;2023-06-10T10:18:14;97512.00;;;32.80
19666;BMP180;9980;51.020;7.772;2023-06-10T10:20:50;97512.00;;;32.80
19666;BMP180;9980;51.020;7.772;2023-06-10T10:23:26;97499.00;;;32.90
19666;BMP180;9980;51.020;7.772;2023-06-10T10:26:00;97492.00;;;33.00
19666;BMP180;9980;51.020;7.772;2023-06-10T10:28:41;97504.00;;;33.00
19666;BMP180;9980;51.020;7.772;2023-06-10T10:31:16;97503.00;;;33.10
19666;BMP180;9980;51.020;7.772;2023-06-10T10:33:58;97502.00;;;33.20
19666;BMP180;9980;51.020;7.772;2023-06-10T10:36:27;97517.00;;;33.30
19666;BMP180;9980;51.020;7.772;2023-06-10T10:38:54;97499.00;;;33.30
19666;BMP180;9980;51.020;7.772;2023-06-10T10:41:24;97495.00;;;33.40
19666;BMP180;9980;51.020;7.772;2023-06-10T10:43:53;97509.00;;;33.40
19666;BMP180;9980;51.020;7.772;2023-06-10T10:46:20;97512.00;;;33.50
19666;BMP180;9980;51.020;7.772;2023-06-10T10:48:53;97504.00;;;33.50
19666;BMP180;9980;51.020;7.772;2023-06-10T10:51:23;97516.00;;;33.60
19666;BMP180;9980;51.020;7.772;2023-06-10T10:54:11;97511.00;;;33.50
19666;BMP180;9980;51.020;7.772;2023-06-10T10:56:39;97505.00;;;33.60
19666;BMP180;9980;51.020;7.772;2023-06-10T10:59:07;97495.00;;;33.70
19666;BMP180;9980;51.020;7.772;2023-06-10T11:01:43;97483.00;;;33.80
19666;BMP180;9980;51.020;7.772;2023-06-10T11:04:18;97493.00;;;33.80
19666;BMP180;9980;51.020;7.772;2023-06-10T11:06:55;97495.00;;;33.80
19666;BMP180;9980;51.020;7.772;2023-06-10T11:09:32;97488.00;;;33.90
19666;BMP180;9980;51.020;7.772;2023-06-10T11:11:59;97480.00;;;34.00
19666;BMP180;9980;51.020;7.772;2023-06-10T11:14:28;97492.00;;;34.00
19666;BMP180;9980;51.020;7.772;2023-06-10T11:16:59;97487.00;;;34.00
19666;BMP180;9980;51.020;7.772;2023-06-10T11:19:37;97493.00;;;34.10
19666;BMP180;9980;51.020;7.772;2023-06-10T11:22:07;97495.00;;;34.20
19666;BMP180;9980;51.020;7.772;2023-06-10T11:24:34;97488.00;;;34.20
19666;BMP180;9980;51.020;7.772;2023-06-10T11:27:20;97488.00;;;34.20
19666;BMP180;9980;51.020;7.772;2023-06-10T11:32:32;97479.00;;;34.40
19666;BMP180;9980;51.020;7.772;2023-06-10T11:35:04;97481.00;;;34.40
19666;BMP180;9980;51.020;7.772;2023-06-10T11:37:31;97472.00;;;34.50
19666;BMP180;9980;51.020;7.772;2023-06-10T11:39:58;97474.00;;;34.60
19666;BMP180;9980;51.020;7.772;2023-06-10T11:42:26;97473.00;;;34.60
19666;BMP180;9980;51.020;7.772;2023-06-10T11:44:54;97480.00;;;34.60
19666;BMP180;9980;51.020;7.772;2023-06-10T11:47:21;97485.00;;;34.70
19666;BMP180;9980;51.020;7.772;2023-06-10T11:49:58;97474.00;;;34.70
19666;BMP180;9980;51.020;7.772;2023-06-10T11:52:32;97478.00;;;34.70
19666;BMP180;9980;51.020;7.772;2023-06-10T11:55:00;97471.00;;;34.80
19666;BMP180;9980;51.020;7.772;2023-06-10T11:57:27;97474.00;;;34.90
19666;BMP180;9980;51.020;7.772;2023-06-10T11:59:54;97473.00;;;34.90
19666;BMP180;9980;51.020;7.772;2023-06-10T12:02:21;97481.00;;;35.00
19666;BMP180;9980;51.020;7.772;2023-06-10T12:04:49;97475.00;;;35.00
19666;BMP180;9980;51.020;7.772;2023-06-10T12:07:19;97481.00;;;35.00
19666;BMP180;9980;51.020;7.772;2023-06-10T12:09:59;97469.00;;;35.00
19666;BMP180;9980;51.020;7.772;2023-06-10T12:12:44;97463.00;;;35.10
19666;BMP180;9980;51.020;7.772;2023-06-10T12:15:24;97475.00;;;35.00
19666;BMP180;9980;51.020;7.772;2023-06-10T12:17:52;97470.00;;;35.00
19666;BMP180;9980;51.020;7.772;2023-06-10T12:20:28;97470.00;;;35.00
19666;BMP180;9980;51.020;7.772;2023-06-10T12:22:55;97475.00;;;35.00
19666;BMP180;9980;51.020;7.772;2023-06-10T12:25:29;97479.00;;;34.90
19666;BMP180;9980;51.020;7.772;2023-06-10T12:27:58;97472.00;;;35.00
19666;BMP180;9980;51.020;7.772;2023-06-10T12:30:27;97467.00;;;35.00
19666;BMP180;9980;51.020;7.772;2023-06-10T12:32:55;97462.00;;;35.00
19666;BMP180;9980;51.020;7.772;2023-06-10T12:35:25;97470.00;;;35.00
19666;BMP180;9980;51.020;7.772;2023-06-10T12:38:02;97472.00;;;35.00
19666;BMP180;9980;51.020;7.772;2023-06-10T12:40:34;97465.00;;;34.90
19666;BMP180;9980;51.020;7.772;2023-06-10T12:43:03;97475.00;;;34.90
19666;BMP180;9980;51.020;7.772;2023-06-10T12:45:37;97474.00;;;34.90
19666;BMP180;9980;51.020;7.772;2023-06-10T12:48:19;97472.00;;;34.90
19666;BMP180;9980;51.020;7.772;2023-06-10T12:50:56;97463.00;;;34.90
19666;BMP180;9980;51.020;7.772;2023-06-10T12:53:24;97465.00;;;34.90
19666;BMP180;9980;51.020;7.772;2023-06-10T12:55:53;97466.00;;;34.80
19666;BMP180;9980;51.020;7.772;2023-06-10T12:58:21;97478.00;;;34.70
19666;BMP180;9980;51.020;7.772;2023-06-10T13:00:49;97476.00;;;34.70
19666;BMP180;9980;51.020;7.772;2023-06-10T13:03:19;97466.00;;;34.50
19666;BMP180;9980;51.020;7.772;2023-06-10T13:05:47;97472.00;;;34.40
19666;BMP180;9980;51.020;7.772;2023-06-10T13:08:15;97473.00;;;34.30
19666;BMP180;9980;51.020;7.772;2023-06-10T13:10:42;97471.00;;;34.10
19666;BMP180;9980;51.020;7.772;2023-06-10T13:13:09;97456.00;;;34.00
19666;BMP180;9980;51.020;7.772;2023-06-10T13:15:37;97469.00;;;33.90
19666;BMP180;9980;51.020;7.772;2023-06-10T13:18:09;97462.00;;;33.90
19666;BMP180;9980;51.020;7.772;2023-06-10T13:20:36;97456.00;;;33.80
19666;BMP180;9980;51.020;7.772;2023-06-10T13:23:03;97455.00;;;33.70
19666;BMP180;9980;51.020;7.772;2023-06-10T13:25:30;97456.00;;;33.70
19666;BMP180;9980;51.020;7.772;2023-06-10T13:27:57;97453.00;;;33.70
19666;BMP180;9980;51.020;7.772;2023-06-10T13:30:26;97460.00;;;33.70
19666;BMP180;9980;51.020;7.772;2023-06-10T13:32:53;97453.00;;;33.70
19666;BMP180;9980;51.020;7.772;2023-06-10T13:35:20;97451.00;;;33.70
19666;BMP180;9980;51.020;7.772;2023-06-10T13:37:47;97445.00;;;33.70
19666;BMP180;9980;51.020;7.772;2023-06-10T13:40:14;97439.00;;;33.70
19666;BMP180;9980;51.020;7.772;2023-06-10T13:42:42;97447.00;;;33.80
19666;BMP180;9980;51.020;7.772;2023-06-10T13:45:09;97439.00;;;33.90
19666;BMP180;9980;51.020;7.772;2023-06-10T13:47:37;97456.00;;;33.90
19666;BMP180;9980;51.020;7.772;2023-06-10T13:50:05;97452.00;;;33.90
19666;BMP180;9980;51.020;7.772;2023-06-10T13:52:33;97444.00;;;33.90
19666;BMP180;9980;51.020;7.772;2023-06-10T13:55:00;97446.00;;;33.90
19666;BMP180;9980;51.020;7.772;2023-06-10T13:57:26;97442.00;;;33.90
19666;BMP180;9980;51.020;7.772;2023-06-10T13:59:53;97448.00;;;33.80
19666;BMP180;9980;51.020;7.772;2023-06-10T14:02:22;97438.00;;;33.80
19666;BMP180;9980;51.020;7.772;2023-06-10T14:04:49;97436.00;;;33.70
19666;BMP180;9980;51.020;7.772;2023-06-10T14:07:16;97444.00;;;33.70
19666;BMP180;9980;51.020;7.772;2023-06-10T14:09:43;97440.00;;;33.70
19666;BMP180;9980;51.020;7.772;2023-06-10T14:12:10;97437.00;;;33.70
19666;BMP180;9980;51.020;7.772;2023-06-10T14:14:38;97422.00;;;33.80
19666;BMP180;9980;51.020;7.772;2023-06-10T14:17:05;97429.00;;;33.80
19666;BMP180;9980;51.020;7.772;2023-06-10T14:19:32;97443.00;;;33.90
19666;BMP180;9980;51.020;7.772;2023-06-10T14:21:59;97430.00;;;34.00
19666;BMP180;9980;51.020;7.772;2023-06-10T14:24:26;97414.00;;;34.00
19666;BMP180;9980;51.020;7.772;2023-06-10T14:26:54;97419.00;;;34.10
19666;BMP180;9980;51.020;7.772;2023-06-10T14:29:21;97426.00;;;34.20
19666;BMP180;9980;51.020;7.772;2023-06-10T14:31:48;97423.00;;;34.30
19666;BMP180;9980;51.020;7.772;2023-06-10T14:34:15;97423.00;;;34.40
19666;BMP180;9980;51.020;7.772;2023-06-10T14:36:42;97420.00;;;34.40
19666;BMP180;9980;51.020;7.772;2023-06-10T14:39:09;97427.00;;;34.50